createdAt,value
2018-06-17T00:00:05.822Z,979.1
2018-06-17T00:01:06.936Z,979
2018-06-17T00:02:08.154Z,979
2018-06-17T00:03:09.300Z,979.1
2018-06-17T00:04:10.479Z,978.9
2018-06-17T00:05:11.624Z,979.1
2018-06-17T00:06:12.914Z,979
2018-06-17T00:07:14.129Z,979.1
2018-06-17T00:08:15.295Z,979
2018-06-17T00:09:16.466Z,979.1
2018-06-17T00:10:17.619Z,979
2018-06-17T00:11:18.774Z,979
2018-06-17T00:12:20.115Z,979.1
2018-06-17T00:13:21.273Z,979.1
2018-06-17T00:14:22.422Z,979.1
2018-06-17T00:15:23.576Z,979
2018-06-17T00:16:24.748Z,979
2018-06-17T00:17:25.953Z,979
2018-06-17T00:18:27.120Z,979
2018-06-17T00:19:28.277Z,979
2018-06-17T00:20:29.410Z,978.9
2018-06-17T00:21:30.538Z,978.9
2018-06-17T00:22:31.729Z,979
2018-06-17T00:23:32.877Z,978.9
2018-06-17T00:24:34.016Z,978.9
2018-06-17T00:25:35.188Z,978.9
2018-06-17T00:26:36.316Z,978.9
2018-06-17T00:27:37.510Z,978.9
2018-06-17T00:28:38.628Z,978.9
2018-06-17T00:29:39.793Z,978.9
2018-06-17T00:30:40.920Z,978.9
2018-06-17T00:31:42.042Z,978.8
2018-06-17T00:32:43.225Z,978.9
2018-06-17T00:33:44.348Z,978.9
2018-06-17T00:34:45.557Z,978.8
2018-06-17T00:35:46.706Z,978.8
2018-06-17T00:36:47.834Z,978.9
2018-06-17T00:37:50.648Z,978.7
2018-06-17T00:38:51.829Z,978.9
2018-06-17T00:39:52.979Z,978.9
2018-06-17T00:40:54.114Z,978.9
2018-06-17T00:41:55.247Z,978.9
2018-06-17T00:42:56.435Z,978.9
2018-06-17T00:43:57.611Z,978.9
2018-06-17T00:44:58.739Z,978.9
2018-06-17T00:45:59.864Z,978.8
2018-06-17T00:47:00.998Z,978.8
2018-06-17T00:48:02.170Z,978.8
2018-06-17T00:49:03.331Z,978.8
2018-06-17T00:50:04.500Z,978.8
2018-06-17T00:51:05.657Z,978.8
2018-06-17T00:52:06.800Z,978.8
2018-06-17T00:53:08.013Z,978.8
2018-06-17T00:54:09.132Z,978.8
2018-06-17T00:55:10.332Z,978.7
2018-06-17T00:56:11.471Z,978.8
2018-06-17T00:57:12.601Z,978.8
2018-06-17T00:58:13.812Z,978.9
2018-06-17T00:59:15.872Z,978.9
2018-06-17T01:00:17.055Z,978.9
2018-06-17T01:01:18.221Z,978.9
2018-06-17T01:02:19.337Z,978.9
2018-06-17T01:03:20.502Z,979
2018-06-17T01:04:21.736Z,979
2018-06-17T01:05:22.915Z,979
2018-06-17T01:06:24.049Z,979
2018-06-17T01:07:25.181Z,978.9
2018-06-17T01:08:26.658Z,978.9
2018-06-17T01:09:27.854Z,978.9
2018-06-17T01:10:28.997Z,978.9
2018-06-17T01:11:30.132Z,978.9
2018-06-17T01:12:31.245Z,978.9
2018-06-17T01:13:32.443Z,978.9
2018-06-17T01:14:33.576Z,978.9
2018-06-17T01:15:34.722Z,978.9
2018-06-17T01:16:35.849Z,979
2018-06-17T01:17:36.992Z,979
2018-06-17T01:18:38.149Z,979
2018-06-17T01:19:39.261Z,979
2018-06-17T01:20:40.401Z,979
2018-06-17T01:21:41.553Z,979
2018-06-17T01:22:42.672Z,979
2018-06-17T01:23:44.116Z,979
2018-06-17T01:24:45.267Z,979
2018-06-17T01:25:46.396Z,979
2018-06-17T01:26:47.557Z,978.9
2018-06-17T01:27:48.689Z,979.1
2018-06-17T01:28:49.889Z,979
2018-06-17T01:29:51.010Z,979
2018-06-17T01:30:52.151Z,979.1
2018-06-17T01:31:53.446Z,979
2018-06-17T01:32:54.578Z,979
2018-06-17T01:33:55.840Z,979.1
2018-06-17T01:34:56.953Z,979.1
2018-06-17T01:35:58.076Z,979
2018-06-17T01:36:59.209Z,979.1
2018-06-17T01:38:00.367Z,979.1
2018-06-17T01:39:01.813Z,979.1
2018-06-17T01:40:02.941Z,979.1
2018-06-17T01:41:04.099Z,979
2018-06-17T01:42:05.234Z,979
2018-06-17T01:43:06.393Z,979
2018-06-17T01:44:07.552Z,979
2018-06-17T01:45:08.684Z,979
2018-06-17T01:46:09.816Z,979
2018-06-17T01:47:10.988Z,979
2018-06-17T01:48:12.131Z,979
2018-06-17T01:49:13.300Z,979
2018-06-17T01:50:14.425Z,979
2018-06-17T01:51:15.592Z,979
2018-06-17T01:52:16.784Z,979.1
2018-06-17T01:53:17.933Z,979.1
2018-06-17T01:54:19.113Z,979
2018-06-17T01:55:20.245Z,979
2018-06-17T01:56:21.379Z,979.1
2018-06-17T01:57:22.512Z,979.1
2018-06-17T01:58:23.631Z,979.1
2018-06-17T01:59:25.228Z,979.2
2018-06-17T02:00:26.405Z,979.2
2018-06-17T02:01:27.570Z,979.2
2018-06-17T02:02:28.738Z,979.2
2018-06-17T02:03:29.872Z,979.2
2018-06-17T02:04:31.042Z,979.2
2018-06-17T02:05:32.184Z,979.2
2018-06-17T02:06:33.318Z,979.3
2018-06-17T02:07:34.482Z,979.3
2018-06-17T02:08:35.613Z,979.3
2018-06-17T02:09:37.471Z,979.2
2018-06-17T02:10:38.632Z,979.2
2018-06-17T02:11:39.802Z,979.3
2018-06-17T02:12:40.926Z,979.3
2018-06-17T02:13:42.191Z,979.3
2018-06-17T02:14:43.412Z,979.4
2018-06-17T02:15:44.552Z,979.3
2018-06-17T02:16:45.773Z,979.3
2018-06-17T02:17:46.951Z,979.3
2018-06-17T02:18:48.065Z,979.3
2018-06-17T02:19:49.281Z,979.3
2018-06-17T02:20:50.417Z,979.2
2018-06-17T02:21:51.529Z,979.3
2018-06-17T02:22:52.681Z,979.3
2018-06-17T02:23:53.872Z,979.3
2018-06-17T02:24:55.078Z,979.2
2018-06-17T02:25:56.194Z,979.1
2018-06-17T02:26:57.406Z,979.2
2018-06-17T02:27:58.557Z,979.2
2018-06-17T02:28:59.718Z,979.2
2018-06-17T02:30:00.934Z,979.2
2018-06-17T02:31:02.189Z,979.3
2018-06-17T02:32:04.196Z,979.3
2018-06-17T02:33:07.935Z,979.2
2018-06-17T02:34:09.110Z,979.3
2018-06-17T02:35:10.319Z,979.4
2018-06-17T02:36:11.539Z,979.2
2018-06-17T02:37:12.770Z,979.3
2018-06-17T02:38:13.951Z,979.3
2018-06-17T02:39:15.213Z,979.3
2018-06-17T02:40:16.470Z,979.3
2018-06-17T02:41:21.191Z,979.3
2018-06-17T02:42:32.354Z,979.2
2018-06-17T02:43:33.590Z,979.3
2018-06-17T02:44:34.737Z,979.4
2018-06-17T02:45:35.888Z,979.3
2018-06-17T02:46:37.089Z,979.4
2018-06-17T02:47:38.437Z,979.3
2018-06-17T02:48:39.586Z,979.4
2018-06-17T02:49:40.727Z,979.3
2018-06-17T02:50:43.032Z,979.3
2018-06-17T02:51:46.206Z,979.4
2018-06-17T02:52:47.375Z,979.4
2018-06-17T02:53:48.532Z,979.4
2018-06-17T02:54:49.673Z,979.3
2018-06-17T02:55:50.865Z,979.4
2018-06-17T02:56:52.012Z,979.2
2018-06-17T02:57:53.183Z,979.3
2018-06-17T02:58:54.325Z,979.3
2018-06-17T02:59:55.452Z,979.4
2018-06-17T03:00:56.670Z,979.3
2018-06-17T03:01:57.848Z,979.3
2018-06-17T03:02:58.968Z,979.4
2018-06-17T03:04:00.086Z,979.4
2018-06-17T03:05:01.266Z,979.4
2018-06-17T03:06:02.452Z,979.4
2018-06-17T03:07:03.584Z,979.3
2018-06-17T03:08:04.744Z,979.4
2018-06-17T03:09:05.902Z,979.2
2018-06-17T03:10:07.043Z,979.3
2018-06-17T03:11:08.262Z,979.4
2018-06-17T03:12:09.394Z,979.4
2018-06-17T03:13:10.569Z,979.4
2018-06-17T03:14:11.711Z,979.3
2018-06-17T03:15:14.134Z,979.3
2018-06-17T03:16:16.064Z,979.4
2018-06-17T03:17:17.229Z,979.4
2018-06-17T03:18:18.436Z,979.4
2018-06-17T03:19:19.613Z,979.3
2018-06-17T03:20:20.768Z,979.3
2018-06-17T03:21:21.993Z,979.3
2018-06-17T03:22:23.139Z,979.3
2018-06-17T03:23:24.285Z,979.4
2018-06-17T03:24:25.414Z,979.4
2018-06-17T03:25:26.613Z,979.4
2018-06-17T03:26:27.781Z,979.4
2018-06-17T03:27:28.987Z,979.4
2018-06-17T03:28:30.121Z,979.4
2018-06-17T03:29:31.309Z,979.5
2018-06-17T03:30:32.661Z,979.5
2018-06-17T03:31:34.194Z,979.5
2018-06-17T03:32:35.469Z,979.2
2018-06-17T03:33:38.215Z,979.5
2018-06-17T03:34:39.991Z,979.5
2018-06-17T03:35:41.255Z,979.5
2018-06-17T03:36:42.437Z,979.6
2018-06-17T03:37:43.576Z,979.7
2018-06-17T03:38:44.691Z,979.7
2018-06-17T03:39:45.818Z,979.7
2018-06-17T03:40:46.954Z,979.7
2018-06-17T03:41:48.372Z,979.6
2018-06-17T03:42:49.544Z,979.7
2018-06-17T03:43:50.675Z,979.7
2018-06-17T03:44:51.856Z,979.7
2018-06-17T03:45:52.996Z,979.7
2018-06-17T03:46:54.165Z,979.7
2018-06-17T03:47:55.373Z,979.7
2018-06-17T03:48:56.502Z,979.7
2018-06-17T03:49:57.653Z,979.8
2018-06-17T03:50:58.800Z,979.7
2018-06-17T03:51:59.950Z,979.7
2018-06-17T03:53:03.788Z,979.5
2018-06-17T03:54:06.204Z,979.7
2018-06-17T03:55:07.424Z,979.7
2018-06-17T03:56:08.553Z,979.7
2018-06-17T03:57:09.752Z,979.7
2018-06-17T03:58:11.054Z,979.6
2018-06-17T03:59:12.522Z,979.8
2018-06-17T04:00:15.440Z,979.7
2018-06-17T04:01:16.679Z,979.8
2018-06-17T04:02:17.862Z,979.8
2018-06-17T04:03:18.997Z,979.7
2018-06-17T04:04:20.158Z,979.7
2018-06-17T04:05:21.302Z,979.7
2018-06-17T04:06:22.461Z,979.7
2018-06-17T04:07:23.653Z,979.8
2018-06-17T04:08:24.786Z,979.8
2018-06-17T04:09:25.956Z,979.8
2018-06-17T04:10:27.162Z,979.8
2018-06-17T04:11:28.218Z,979.9
2018-06-17T04:12:29.425Z,979.9
2018-06-17T04:13:30.590Z,979.9
2018-06-17T04:14:31.753Z,979.9
2018-06-17T04:15:33.166Z,979.7
2018-06-17T04:16:34.304Z,979.9
2018-06-17T04:17:35.466Z,979.9
2018-06-17T04:18:36.604Z,979.8
2018-06-17T04:19:37.763Z,979.9
2018-06-17T04:20:38.899Z,979.9
2018-06-17T04:21:40.027Z,979.9
2018-06-17T04:22:41.188Z,979.9
2018-06-17T04:23:42.804Z,979.9
2018-06-17T04:24:43.933Z,979.9
2018-06-17T04:25:45.106Z,979.9
2018-06-17T04:26:46.253Z,979.9
2018-06-17T04:27:47.624Z,979.9
2018-06-17T04:28:48.792Z,979.9
2018-06-17T04:29:50.099Z,980
2018-06-17T04:30:51.522Z,979.7
2018-06-17T04:31:52.843Z,979.9
2018-06-17T04:32:54.175Z,979.8
2018-06-17T04:33:55.404Z,980
2018-06-17T04:34:56.548Z,980
2018-06-17T04:35:57.724Z,980.1
2018-06-17T04:36:58.887Z,980.2
2018-06-17T04:38:00.075Z,980.2
2018-06-17T04:39:01.288Z,980.2
2018-06-17T04:40:02.445Z,980
2018-06-17T04:41:03.630Z,979.9
2018-06-17T04:42:04.777Z,979.9
2018-06-17T04:43:06.371Z,980
2018-06-17T04:44:07.510Z,979.9
2018-06-17T04:45:08.649Z,980
2018-06-17T04:46:09.776Z,980.1
2018-06-17T04:47:12.023Z,980.2
2018-06-17T04:48:13.442Z,980.1
2018-06-17T04:49:14.803Z,980.2
2018-06-17T04:50:16.080Z,979.9
2018-06-17T04:51:17.332Z,980.1
2018-06-17T04:52:18.476Z,980.1
2018-06-17T04:53:19.677Z,980
2018-06-17T04:54:20.872Z,980.2
2018-06-17T04:55:22.282Z,979.9
2018-06-17T04:56:23.412Z,980
2018-06-17T04:57:24.545Z,980.1
2018-06-17T04:58:25.792Z,980.1
2018-06-17T04:59:26.988Z,980.3
2018-06-17T05:00:28.116Z,980.3
2018-06-17T05:01:29.265Z,980.1
2018-06-17T05:02:30.411Z,980.3
2018-06-17T05:03:31.577Z,980.3
2018-06-17T05:04:32.716Z,980.2
2018-06-17T05:05:34.069Z,980.4
2018-06-17T05:06:35.495Z,980.3
2018-06-17T05:07:36.850Z,980.3
2018-06-17T05:08:38.033Z,980.2
2018-06-17T05:09:39.172Z,980.3
2018-06-17T05:10:40.301Z,980.4
2018-06-17T05:11:41.428Z,980.4
2018-06-17T05:12:42.544Z,980.2
2018-06-17T05:13:44.033Z,980.3
2018-06-17T05:14:45.146Z,980.4
2018-06-17T05:15:46.281Z,980.5
2018-06-17T05:16:47.414Z,980.2
2018-06-17T05:17:48.561Z,980.4
2018-06-17T05:18:49.790Z,980.5
2018-06-17T05:19:51.168Z,980.4
2018-06-17T05:20:53.389Z,980.5
2018-06-17T05:21:55.472Z,980.6
2018-06-17T05:22:56.746Z,980.4
2018-06-17T05:23:57.985Z,980.4
2018-06-17T05:24:59.112Z,980.6
2018-06-17T05:26:00.231Z,980.5
2018-06-17T05:27:01.413Z,980.4
2018-06-17T05:28:02.652Z,980.3
2018-06-17T05:29:03.820Z,980.4
2018-06-17T05:30:04.966Z,980.4
2018-06-17T05:31:06.084Z,980.3
2018-06-17T05:32:07.277Z,980.4
2018-06-17T05:33:08.437Z,980.4
2018-06-17T05:34:09.778Z,980.3
2018-06-17T05:35:11.129Z,980.5
2018-06-17T05:36:12.640Z,980.3
2018-06-17T05:37:13.810Z,980.7
2018-06-17T05:38:15.120Z,980.6
2018-06-17T05:39:16.428Z,980.7
2018-06-17T05:40:17.614Z,980.7
2018-06-17T05:41:18.728Z,980.8
2018-06-17T05:42:19.887Z,980.9
2018-06-17T05:43:21.557Z,980.9
2018-06-17T05:44:22.797Z,980.9
2018-06-17T05:45:24.172Z,980.6
2018-06-17T05:46:25.358Z,980.9
2018-06-17T05:47:26.494Z,980.8
2018-06-17T05:48:27.663Z,980.9
2018-06-17T05:49:28.839Z,980.9
2018-06-17T05:50:29.952Z,981
2018-06-17T05:51:31.080Z,980.9
2018-06-17T05:52:32.212Z,981.1
2018-06-17T05:53:33.361Z,981
2018-06-17T05:54:34.582Z,981.3
2018-06-17T05:55:35.762Z,981.2
2018-06-17T05:56:36.860Z,981
2018-06-17T05:57:37.992Z,981
2018-06-17T05:58:39.115Z,981.1
2018-06-17T05:59:40.328Z,981.1
2018-06-17T06:00:41.458Z,980.9
2018-06-17T06:01:42.577Z,980.9
2018-06-17T06:02:43.726Z,980.9
2018-06-17T06:03:44.998Z,981
2018-06-17T06:04:46.225Z,980.9
2018-06-17T06:05:47.443Z,980.9
2018-06-17T06:06:48.586Z,981
2018-06-17T06:07:49.699Z,981.2
2018-06-17T06:08:50.843Z,981.1
2018-06-17T06:09:52.341Z,980.9
2018-06-17T06:10:53.461Z,981
2018-06-17T06:11:54.624Z,981.1
2018-06-17T06:12:55.740Z,980.9
2018-06-17T06:13:56.900Z,981
2018-06-17T06:14:58.274Z,981.1
2018-06-17T06:15:59.438Z,980.8
2018-06-17T06:17:00.713Z,980.9
2018-06-17T06:18:03.169Z,980.6
2018-06-17T06:19:04.349Z,980.7
2018-06-17T06:20:05.540Z,980.7
2018-06-17T06:21:06.696Z,980.8
2018-06-17T06:22:07.879Z,980.7
2018-06-17T06:23:09.029Z,980.7
2018-06-17T06:24:10.156Z,980.9
2018-06-17T06:25:11.341Z,981
2018-06-17T06:26:12.600Z,981.1
2018-06-17T06:27:14.108Z,980.8
2018-06-17T06:28:15.471Z,980.6
2018-06-17T06:29:17.115Z,980.8
2018-06-17T06:30:18.430Z,980.6
2018-06-17T06:31:19.568Z,981
2018-06-17T06:32:20.712Z,980.8
2018-06-17T06:33:21.850Z,980.9
2018-06-17T06:34:22.972Z,981
2018-06-17T06:35:24.165Z,980.8
2018-06-17T06:36:25.313Z,981
2018-06-17T06:37:26.456Z,980.9
2018-06-17T06:38:27.666Z,981
2018-06-17T06:39:28.807Z,980.9
2018-06-17T06:40:30.624Z,980.9
2018-06-17T06:41:31.786Z,980.9
2018-06-17T06:42:32.916Z,981
2018-06-17T06:43:34.078Z,981
2018-06-17T06:44:35.200Z,980.9
2018-06-17T06:45:36.411Z,980.7
2018-06-17T06:46:37.753Z,980.8
2018-06-17T06:47:39.033Z,980.6
2018-06-17T06:48:40.187Z,981
2018-06-17T06:49:41.322Z,981.1
2018-06-17T06:50:42.506Z,980.8
2018-06-17T06:51:43.634Z,981
2018-06-17T06:52:44.780Z,981.1
2018-06-17T06:53:45.910Z,981.2
2018-06-17T06:54:47.484Z,981.4
2018-06-17T06:55:48.666Z,981.5
2018-06-17T06:56:49.818Z,981.3
2018-06-17T06:57:51.046Z,981.1
2018-06-17T06:58:52.205Z,981.2
2018-06-17T06:59:53.868Z,981.3
2018-06-17T07:00:55.063Z,981.3
2018-06-17T07:01:56.185Z,981
2018-06-17T07:02:57.390Z,981.5
2018-06-17T07:03:58.526Z,981.2
2018-06-17T07:04:59.658Z,981.3
2018-06-17T07:06:00.844Z,981.5
2018-06-17T07:07:01.993Z,981.3
2018-06-17T07:08:05.874Z,981.2
2018-06-17T07:09:07.097Z,981.3
2018-06-17T07:10:08.272Z,981.1
2018-06-17T07:11:11.672Z,981
2018-06-17T07:12:12.823Z,981.3
2018-06-17T07:13:13.956Z,981.4
2018-06-17T07:14:15.169Z,981.5
2018-06-17T07:15:19.393Z,981.4
2018-06-17T07:16:20.904Z,981.9
2018-06-17T07:17:22.065Z,981.3
2018-06-17T07:18:23.821Z,981.6
2018-06-17T07:19:24.973Z,981.9
2018-06-17T07:20:26.110Z,981.6
2018-06-17T07:21:27.286Z,981.7
2018-06-17T07:22:28.412Z,981.8
2018-06-17T07:23:29.554Z,981.4
2018-06-17T07:24:30.683Z,981.9
2018-06-17T07:25:31.825Z,981.6
2018-06-17T07:26:33.976Z,981.8
2018-06-17T07:27:38.327Z,981.5
2018-06-17T07:28:39.533Z,981.9
2018-06-17T07:29:40.674Z,981.8
2018-06-17T07:30:41.821Z,981.3
2018-06-17T07:31:43.047Z,981.6
2018-06-17T07:32:44.229Z,981.7
2018-06-17T07:33:45.346Z,981.5
2018-06-17T07:34:46.542Z,981.5
2018-06-17T07:35:47.798Z,981.7
2018-06-17T07:36:49.085Z,981.4
2018-06-17T07:37:50.253Z,981.4
2018-06-17T07:38:51.400Z,981.3
2018-06-17T07:39:52.556Z,981.5
2018-06-17T07:40:53.705Z,981.3
2018-06-17T07:41:54.905Z,981.2
2018-06-17T07:42:56.448Z,981.1
2018-06-17T07:44:01.156Z,981.1
2018-06-17T07:45:02.503Z,981.1
2018-06-17T07:46:03.658Z,981.5
2018-06-17T07:47:07.312Z,981.5
2018-06-17T07:48:08.534Z,981.5
2018-06-17T07:49:09.666Z,981.4
2018-06-17T07:50:10.873Z,981.3
2018-06-17T07:51:12.009Z,981.4
2018-06-17T07:52:13.169Z,981.2
2018-06-17T07:53:14.424Z,981.3
2018-06-17T07:54:15.585Z,981.2
2018-06-17T07:55:16.719Z,981.4
2018-06-17T07:56:18.136Z,981.4
2018-06-17T07:57:20.285Z,981.4
2018-06-17T07:58:23.270Z,981.5
2018-06-17T07:59:24.890Z,981.6
2018-06-17T08:00:28.230Z,981.5
2018-06-17T08:01:29.403Z,981.7
2018-06-17T08:02:30.632Z,981.7
2018-06-17T08:03:31.829Z,981.8
2018-06-17T08:04:33.008Z,981.7
2018-06-17T08:05:34.101Z,981.7
2018-06-17T08:06:35.730Z,981.7
2018-06-17T08:07:36.938Z,982
2018-06-17T08:08:38.116Z,981.9
2018-06-17T08:09:39.248Z,981.8
2018-06-17T08:10:40.449Z,981.8
2018-06-17T08:11:41.657Z,981.9
2018-06-17T08:12:42.902Z,981.8
2018-06-17T08:13:44.114Z,981.8
2018-06-17T08:14:45.325Z,981.8
2018-06-17T08:15:46.531Z,981.9
2018-06-17T08:16:47.783Z,982
2018-06-17T08:17:48.994Z,982
2018-06-17T08:18:50.546Z,982.1
2018-06-17T08:19:52.179Z,982
2018-06-17T08:20:54.724Z,982
2018-06-17T08:21:56.072Z,982.1
2018-06-17T08:22:57.342Z,982.1
2018-06-17T08:23:58.567Z,981.9
2018-06-17T08:25:00.093Z,981.9
2018-06-17T08:26:01.506Z,982
2018-06-17T08:27:03.927Z,982.1
2018-06-17T08:28:09.095Z,982
2018-06-17T08:29:10.328Z,982
2018-06-17T08:30:11.484Z,982.1
2018-06-17T08:31:12.664Z,982.2
2018-06-17T08:32:13.801Z,981.9
2018-06-17T08:33:14.989Z,981.9
2018-06-17T08:34:16.183Z,982
2018-06-17T08:35:17.552Z,982.1
2018-06-17T08:36:18.890Z,982.1
2018-06-17T08:37:20.216Z,981.9
2018-06-17T08:38:21.454Z,982
2018-06-17T08:39:22.662Z,981.9
2018-06-17T08:40:23.934Z,981.7
2018-06-17T08:41:25.085Z,981.8
2018-06-17T08:42:26.265Z,981.7
2018-06-17T08:43:27.536Z,981.7
2018-06-17T08:44:28.726Z,981.7
2018-06-17T08:45:30.211Z,981.7
2018-06-17T08:46:31.420Z,981.7
2018-06-17T08:47:32.563Z,981.7
2018-06-17T08:48:34.049Z,981.6
2018-06-17T08:49:35.226Z,981.7
2018-06-17T08:50:36.434Z,981.6
2018-06-17T08:51:38.039Z,981.6
2018-06-17T08:52:39.707Z,981.5
2018-06-17T08:53:41.418Z,981.7
2018-06-17T08:54:42.665Z,981.7
2018-06-17T08:55:43.852Z,981.8
2018-06-17T08:56:45.010Z,981.9
2018-06-17T08:57:46.273Z,981.6
2018-06-17T08:58:47.534Z,981.9
2018-06-17T08:59:48.700Z,981.9
2018-06-17T09:00:49.874Z,981.9
2018-06-17T09:01:51.019Z,981.8
2018-06-17T09:02:53.886Z,981.8
2018-06-17T09:03:55.093Z,981.7
2018-06-17T09:04:56.243Z,981.7
2018-06-17T09:05:57.468Z,981.7
2018-06-17T09:06:58.667Z,981.7
2018-06-17T09:07:59.844Z,981.7
2018-06-17T09:09:01.094Z,981.7
2018-06-17T09:10:02.263Z,981.6
2018-06-17T09:11:03.424Z,981.7
2018-06-17T09:12:04.580Z,981.6
2018-06-17T09:13:05.700Z,981.5
2018-06-17T09:14:06.914Z,981.5
2018-06-17T09:15:08.090Z,981.5
2018-06-17T09:16:09.250Z,981.5
2018-06-17T09:17:10.430Z,981.5
2018-06-17T09:18:11.676Z,981.6
2018-06-17T09:19:12.969Z,981.4
2018-06-17T09:20:14.176Z,981.3
2018-06-17T09:21:15.328Z,981.5
2018-06-17T09:22:16.478Z,981.5
2018-06-17T09:23:19.007Z,981.5
2018-06-17T09:24:20.190Z,981.4
2018-06-17T09:25:21.343Z,981.5
2018-06-17T09:26:22.440Z,981.4
2018-06-17T09:27:23.600Z,981.4
2018-06-17T09:28:24.796Z,981.4
2018-06-17T09:29:25.994Z,981.3
2018-06-17T09:30:27.146Z,981.4
2018-06-17T09:31:28.361Z,981.4
2018-06-17T09:32:29.520Z,981.3
2018-06-17T09:33:30.722Z,981.3
2018-06-17T09:34:31.940Z,981.3
2018-06-17T09:35:33.082Z,981.3
2018-06-17T09:36:34.245Z,981.2
2018-06-17T09:37:35.416Z,981.3
2018-06-17T09:38:37.609Z,981.2
2018-06-17T09:39:38.837Z,981.2
2018-06-17T09:40:41.327Z,981.3
2018-06-17T09:41:42.530Z,981.3
2018-06-17T09:42:43.696Z,981.3
2018-06-17T09:43:44.875Z,981.2
2018-06-17T09:44:46.065Z,981.2
2018-06-17T09:45:47.226Z,981.1
2018-06-17T09:46:48.386Z,981.2
2018-06-17T09:47:49.540Z,981.2
2018-06-17T09:48:50.682Z,981.3
2018-06-17T09:49:52.316Z,981.2
2018-06-17T09:50:53.431Z,981.2
2018-06-17T09:51:54.586Z,980.9
2018-06-17T09:52:55.744Z,981.1
2018-06-17T09:53:56.927Z,981.1
2018-06-17T09:54:58.169Z,981.2
2018-06-17T09:55:59.313Z,981.1
2018-06-17T09:57:00.470Z,981.2
2018-06-17T09:58:01.689Z,981.2
2018-06-17T09:59:02.840Z,981.3
2018-06-17T10:00:04.026Z,981.1
2018-06-17T10:01:05.173Z,981.2
2018-06-17T10:02:06.305Z,981.2
2018-06-17T10:03:07.462Z,981.1
2018-06-17T10:04:08.663Z,981.1
2018-06-17T10:05:09.897Z,980.9
2018-06-17T10:06:11.051Z,981.1
2018-06-17T10:07:12.189Z,981.1
2018-06-17T10:08:13.347Z,981.1
2018-06-17T10:09:14.552Z,981.1
2018-06-17T10:10:15.848Z,981.1
2018-06-17T10:11:17.036Z,981.2
2018-06-17T10:12:18.246Z,981
2018-06-17T10:13:19.442Z,981.1
2018-06-17T10:14:20.624Z,980.9
2018-06-17T10:15:21.819Z,980.9
2018-06-17T10:16:24.336Z,981
2018-06-17T10:17:25.473Z,980.9
2018-06-17T10:18:26.609Z,981
2018-06-17T10:19:27.802Z,981.1
2018-06-17T10:20:29.245Z,981
2018-06-17T10:21:30.410Z,981.1
2018-06-17T10:22:31.561Z,981
2018-06-17T10:23:32.702Z,981.1
2018-06-17T10:24:33.853Z,981.1
2018-06-17T10:25:35.117Z,981
2018-06-17T10:26:36.305Z,981.1
2018-06-17T10:27:37.540Z,981.1
2018-06-17T10:28:38.718Z,981.1
2018-06-17T10:29:40.054Z,981.1
2018-06-17T10:30:41.354Z,981
2018-06-17T10:31:42.641Z,981
2018-06-17T10:32:43.842Z,981
2018-06-17T10:33:45.040Z,981
2018-06-17T10:34:46.331Z,981.1
2018-06-17T10:35:47.662Z,981.1
2018-06-17T10:36:48.976Z,981
2018-06-17T10:37:50.145Z,980.9
2018-06-17T10:38:51.344Z,980.9
2018-06-17T10:39:52.848Z,980.8
2018-06-17T10:40:54.124Z,980.9
2018-06-17T10:41:55.306Z,980.9
2018-06-17T10:42:56.494Z,980.9
2018-06-17T10:43:57.718Z,981
2018-06-17T10:44:58.980Z,980.9
2018-06-17T10:46:00.236Z,980.9
2018-06-17T10:47:01.578Z,980.9
2018-06-17T10:48:02.792Z,980.9
2018-06-17T10:49:04.061Z,980.9
2018-06-17T10:50:05.278Z,981
2018-06-17T10:51:06.813Z,980.9
2018-06-17T10:52:09.348Z,980.9
2018-06-17T10:53:10.564Z,980.9
2018-06-17T10:54:11.814Z,981
2018-06-17T10:55:13.047Z,980.9
2018-06-17T10:56:14.346Z,980.8
2018-06-17T10:57:15.546Z,981
2018-06-17T10:58:16.800Z,981
2018-06-17T10:59:18.083Z,981
2018-06-17T11:00:19.316Z,981
2018-06-17T11:01:20.557Z,981
2018-06-17T11:02:21.754Z,981
2018-06-17T11:03:23.028Z,981
2018-06-17T11:04:24.262Z,980.9
2018-06-17T11:05:26.193Z,981
2018-06-17T11:06:27.569Z,980.9
2018-06-17T11:07:28.826Z,981
2018-06-17T11:08:30.052Z,980.9
2018-06-17T11:09:31.247Z,980.8
2018-06-17T11:10:32.446Z,980.8
2018-06-17T11:11:33.725Z,980.9
2018-06-17T11:12:34.986Z,980.8
2018-06-17T11:13:36.226Z,980.9
2018-06-17T11:16:06.027Z,980.9
2018-06-17T11:17:07.242Z,980.9
2018-06-17T11:18:08.500Z,980.9
2018-06-17T11:19:09.721Z,980.7
2018-06-17T11:20:10.924Z,981
2018-06-17T11:21:12.118Z,981
2018-06-17T11:22:13.623Z,980.9
2018-06-17T11:23:14.820Z,980.9
2018-06-17T11:24:16.007Z,980.9
2018-06-17T11:25:17.222Z,980.8
2018-06-17T11:26:18.405Z,980.9
2018-06-17T11:27:19.622Z,980.9
2018-06-17T11:28:20.823Z,980.9
2018-06-17T11:29:21.999Z,980.9
2018-06-17T11:30:23.200Z,980.9
2018-06-17T11:31:24.405Z,980.9
2018-06-17T11:32:25.650Z,980.9
2018-06-17T11:33:26.804Z,980.9
2018-06-17T11:34:28.133Z,980.9
2018-06-17T11:35:29.336Z,980.9
2018-06-17T11:36:30.547Z,980.9
2018-06-17T11:37:31.807Z,980.9
2018-06-17T11:38:33.017Z,980.9
2018-06-17T11:39:34.282Z,980.9
2018-06-17T11:40:35.473Z,980.9
2018-06-17T11:41:42.688Z,980.9
2018-06-17T11:42:43.913Z,981
2018-06-17T11:43:45.105Z,981
2018-06-17T11:44:46.271Z,980.8
2018-06-17T11:45:47.485Z,980.9
2018-06-17T11:46:48.792Z,980.9
2018-06-17T11:47:50.155Z,980.9
2018-06-17T11:48:51.342Z,980.9
2018-06-17T11:49:52.526Z,980.9
2018-06-17T11:50:53.787Z,980.8
2018-06-17T11:51:57.328Z,980.8
2018-06-17T11:52:58.833Z,980.7
2018-06-17T11:54:00.122Z,980.8
2018-06-17T11:55:01.610Z,980.9
2018-06-17T11:56:02.853Z,980.9
2018-06-17T11:57:04.137Z,980.9
2018-06-17T11:58:05.434Z,980.8
2018-06-17T11:59:06.798Z,980.9
2018-06-17T12:00:08.478Z,980.8
2018-06-17T12:01:09.933Z,980.8
2018-06-17T12:02:13.953Z,980.9
2018-06-17T12:03:15.265Z,980.9
2018-06-17T12:04:16.487Z,980.9
2018-06-17T12:05:17.723Z,980.9
2018-06-17T12:06:19.019Z,980.9
2018-06-17T12:07:20.290Z,980.9
2018-06-17T12:08:21.778Z,980.9
2018-06-17T12:09:23.049Z,980.7
2018-06-17T12:10:24.301Z,980.9
2018-06-17T12:11:28.944Z,981
2018-06-17T12:12:30.290Z,981
2018-06-17T12:13:31.586Z,981
2018-06-17T12:14:32.776Z,981.1
2018-06-17T12:15:33.977Z,981
2018-06-17T12:16:35.197Z,980.9
2018-06-17T12:17:36.497Z,981
2018-06-17T12:18:38.145Z,981
2018-06-17T12:19:39.468Z,980.9
2018-06-17T12:20:40.783Z,980.9
2018-06-17T12:21:42.015Z,980.9
2018-06-17T12:22:43.749Z,981
2018-06-17T12:23:45.401Z,981
2018-06-17T12:24:46.640Z,981
2018-06-17T12:25:47.880Z,980.9
2018-06-17T12:26:49.181Z,980.8
2018-06-17T12:27:50.582Z,980.8
2018-06-17T12:28:58.639Z,980.7
2018-06-17T12:29:59.882Z,980.9
2018-06-17T12:31:01.089Z,980.9
2018-06-17T12:32:04.758Z,980.9
2018-06-17T12:33:06.278Z,980.9
2018-06-17T12:34:07.727Z,980.9
2018-06-17T12:35:09.012Z,980.9
2018-06-17T12:36:10.272Z,980.9
2018-06-17T12:37:11.637Z,980.8
2018-06-17T12:38:12.934Z,980.9
2018-06-17T12:39:14.313Z,980.9
2018-06-17T12:40:15.727Z,980.9
2018-06-17T12:41:16.946Z,980.9
2018-06-17T12:42:18.269Z,980.8
2018-06-17T12:43:19.665Z,980.9
2018-06-17T12:44:21.052Z,980.9
2018-06-17T12:45:22.289Z,980.9
2018-06-17T12:46:23.965Z,980.7
2018-06-17T12:47:25.423Z,980.9
2018-06-17T12:48:26.669Z,980.7
2018-06-17T12:49:28.192Z,980.9
2018-06-17T12:50:29.801Z,980.7
2018-06-17T12:51:31.621Z,980.8
2018-06-17T12:52:32.863Z,980.7
2018-06-17T12:53:34.092Z,980.9
2018-06-17T12:54:35.466Z,980.8
2018-06-17T12:55:36.722Z,980.9
2018-06-17T12:56:38.039Z,980.9
2018-06-17T12:57:39.666Z,980.9
2018-06-17T12:58:40.984Z,980.9
2018-06-17T12:59:42.344Z,980.9
2018-06-17T13:00:44.845Z,981
2018-06-17T13:01:46.084Z,981
2018-06-17T13:02:48.331Z,980.9
2018-06-17T13:03:50.172Z,981
2018-06-17T13:04:51.475Z,980.8
2018-06-17T13:05:52.838Z,980.8
2018-06-17T13:06:54.018Z,980.9
2018-06-17T13:07:55.272Z,981
2018-06-17T13:08:57.145Z,980.9
2018-06-17T13:09:58.519Z,980.9
2018-06-17T13:10:59.765Z,980.8
2018-06-17T13:12:02.171Z,980.8
2018-06-17T13:13:03.456Z,980.8
2018-06-17T13:14:04.697Z,980.9
2018-06-17T13:15:06.061Z,980.9
2018-06-17T13:16:07.369Z,980.9
2018-06-17T13:17:08.936Z,980.8
2018-06-17T13:18:11.054Z,980.9
2018-06-17T13:19:12.543Z,980.9